createdAt,value
2023-12-16T00:01:48.163Z,100.00
2023-12-16T00:06:50.133Z,100.00
2023-12-16T00:11:52.932Z,100.00
2023-12-16T00:16:55.213Z,100.00
2023-12-16T00:21:57.121Z,100.00
2023-12-16T00:26:59.109Z,100.00
2023-12-16T00:32:00.790Z,100.00
2023-12-16T00:37:07.045Z,100.00
2023-12-16T00:42:08.846Z,100.00
2023-12-16T00:47:10.497Z,100.00
2023-12-16T00:52:12.159Z,100.00
2023-12-16T00:57:13.824Z,100.00
2023-12-16T01:02:15.469Z,100.00
2023-12-16T01:07:17.193Z,100.00
2023-12-16T01:12:18.965Z,100.00
2023-12-16T01:17:21.604Z,100.00
2023-12-16T01:22:23.328Z,100.00
2023-12-16T01:27:25.792Z,100.00
2023-12-16T01:32:27.913Z,100.00
2023-12-16T01:37:30.601Z,100.00
2023-12-16T01:42:32.261Z,100.00
2023-12-16T01:47:34.036Z,100.00
2023-12-16T01:52:36.035Z,100.00
2023-12-16T01:57:38.190Z,100.00
2023-12-16T02:02:45.729Z,100.00
2023-12-16T02:07:47.691Z,100.00
2023-12-16T02:12:50.513Z,100.00
2023-12-16T02:17:52.220Z,100.00
2023-12-16T02:22:54.151Z,100.00
2023-12-16T02:27:55.795Z,100.00
2023-12-16T02:32:58.300Z,100.00
2023-12-16T02:38:00.075Z,100.00
2023-12-16T02:43:02.982Z,100.00
2023-12-16T02:48:05.003Z,100.00
2023-12-16T02:53:08.091Z,100.00
2023-12-16T02:58:09.863Z,100.00
2023-12-16T03:03:12.174Z,100.00
2023-12-16T03:08:13.860Z,100.00
2023-12-16T03:13:15.549Z,100.00
2023-12-16T03:18:17.314Z,100.00
2023-12-16T03:23:19.081Z,100.00
2023-12-16T03:28:20.744Z,100.00
2023-12-16T03:33:22.496Z,100.00
2023-12-16T03:38:24.215Z,100.00
2023-12-16T03:43:25.875Z,98.99
2023-12-16T03:48:27.632Z,98.04
2023-12-16T03:53:29.366Z,96.64
2023-12-16T03:58:31.396Z,95.98
2023-12-16T04:03:33.080Z,95.98
2023-12-16T04:08:34.737Z,96.11
2023-12-16T04:13:37.011Z,96.32
2023-12-16T04:18:39.152Z,96.95
2023-12-16T04:23:40.886Z,97.02
2023-12-16T04:28:42.538Z,97.14
2023-12-16T04:33:45.228Z,96.99
2023-12-16T04:38:47.179Z,96.60
2023-12-16T04:43:48.878Z,95.51
2023-12-16T04:48:50.685Z,95.73
2023-12-16T04:53:52.392Z,94.64
2023-12-16T04:58:54.032Z,94.57
2023-12-16T05:03:56.440Z,94.76
2023-12-16T05:08:58.287Z,94.56
2023-12-16T05:13:59.932Z,94.65
2023-12-16T05:19:01.755Z,95.19
2023-12-16T05:24:03.877Z,95.74
2023-12-16T05:29:05.571Z,96.03
2023-12-16T05:34:07.391Z,95.73
2023-12-16T05:39:09.086Z,96.12
2023-12-16T05:44:10.731Z,95.82
2023-12-16T05:49:12.489Z,95.93
2023-12-16T05:54:14.237Z,95.40
2023-12-16T05:59:15.958Z,95.10
2023-12-16T06:04:17.679Z,94.72
2023-12-16T06:09:19.370Z,95.44
2023-12-16T06:14:21.047Z,96.03
2023-12-16T06:19:25.869Z,96.01
2023-12-16T06:24:29.176Z,95.98
2023-12-16T06:29:31.521Z,96.04
2023-12-16T06:34:33.221Z,96.09
2023-12-16T06:39:34.932Z,96.13
2023-12-16T06:44:37.813Z,95.49
2023-12-16T06:49:39.650Z,95.89
2023-12-16T06:54:41.317Z,95.18
2023-12-16T06:59:43.005Z,96.18
2023-12-16T07:04:44.781Z,95.89
2023-12-16T07:09:46.547Z,97.50
2023-12-16T07:14:48.671Z,97.62
2023-12-16T07:19:50.619Z,98.50
2023-12-16T07:24:52.419Z,98.68
2023-12-16T07:29:54.174Z,100.00
2023-12-16T07:34:55.953Z,99.73
2023-12-16T07:39:57.691Z,99.69
2023-12-16T07:44:59.408Z,99.94
2023-12-16T07:50:01.166Z,98.75
2023-12-16T07:55:03.618Z,97.69
2023-12-16T08:00:06.098Z,97.35
2023-12-16T08:05:08.146Z,97.41
2023-12-16T08:10:10.016Z,96.02
2023-12-16T08:15:11.721Z,95.67
2023-12-16T08:20:13.485Z,94.20
2023-12-16T08:25:15.273Z,94.06
2023-12-16T08:30:16.968Z,93.42
2023-12-16T08:35:19.233Z,92.49
2023-12-16T08:40:21.054Z,92.58
2023-12-16T08:45:22.729Z,92.62
2023-12-16T08:50:24.779Z,92.09
2023-12-16T08:55:28.011Z,91.04
2023-12-16T09:00:29.856Z,91.41
2023-12-16T09:05:32.447Z,91.13
2023-12-16T09:10:36.224Z,91.33
2023-12-16T09:15:37.910Z,89.97
2023-12-16T09:20:39.540Z,89.56
2023-12-16T09:25:41.234Z,89.03
2023-12-16T09:30:42.978Z,88.65
2023-12-16T09:35:44.641Z,88.34
2023-12-16T09:40:46.395Z,87.89
2023-12-16T09:45:48.200Z,88.03
2023-12-16T09:50:49.997Z,88.22
2023-12-16T09:55:54.833Z,88.50
2023-12-16T10:00:57.413Z,88.32
2023-12-16T10:05:59.225Z,87.50
2023-12-16T10:11:11.770Z,86.87
2023-12-16T10:16:23.222Z,87.13
2023-12-16T10:21:29.597Z,86.63
2023-12-16T10:26:32.759Z,85.63
2023-12-16T10:31:35.876Z,84.71
2023-12-16T10:36:37.692Z,84.18
2023-12-16T10:41:39.349Z,84.08
2023-12-16T10:46:43.111Z,84.15
2023-12-16T10:51:49.631Z,82.42
2023-12-16T10:57:03.974Z,82.25
2023-12-16T11:02:18.632Z,80.74
2023-12-16T11:07:24.002Z,80.71
2023-12-16T11:12:26.606Z,80.83
2023-12-16T11:17:34.455Z,80.28
2023-12-16T11:22:47.702Z,79.67
2023-12-16T11:27:50.639Z,75.08
2023-12-16T11:32:56.587Z,70.90
2023-12-16T11:37:58.358Z,66.99
2023-12-16T11:43:04.065Z,66.30
2023-12-16T11:48:06.470Z,62.97
2023-12-16T11:53:10.635Z,66.82
2023-12-16T11:58:12.439Z,69.79
2023-12-16T12:03:14.161Z,72.23
2023-12-16T12:08:15.834Z,71.88
2023-12-16T12:13:17.540Z,71.37
2023-12-16T12:18:19.289Z,73.45
2023-12-16T12:23:21.046Z,73.93
2023-12-16T12:28:22.959Z,74.53
2023-12-16T12:33:24.927Z,75.08
2023-12-16T12:38:29.135Z,75.70
2023-12-16T12:43:32.305Z,73.70
2023-12-16T12:48:34.725Z,74.41
2023-12-16T12:53:37.129Z,75.24
2023-12-16T12:58:38.823Z,76.22
2023-12-16T13:03:41.618Z,77.24
2023-12-16T13:08:43.372Z,77.45
2023-12-16T13:13:45.011Z,77.53
2023-12-16T13:18:47.508Z,76.89
2023-12-16T13:23:49.592Z,77.53
2023-12-16T13:28:51.345Z,77.66
2023-12-16T13:33:53.070Z,77.26
2023-12-16T13:38:56.704Z,77.81
2023-12-16T13:43:58.372Z,78.34
2023-12-16T13:49:03.037Z,79.00
2023-12-16T13:54:05.058Z,79.45
2023-12-16T13:59:06.718Z,80.27
2023-12-16T14:04:08.384Z,80.08
2023-12-16T14:09:10.340Z,80.91
2023-12-16T14:14:12.393Z,81.40
2023-12-16T14:19:14.134Z,81.06
2023-12-16T14:24:15.870Z,81.64
2023-12-16T14:29:17.513Z,81.82
2023-12-16T14:34:20.374Z,82.09
2023-12-16T14:39:22.197Z,82.72
2023-12-16T14:44:23.880Z,83.11
2023-12-16T14:49:28.381Z,83.41
2023-12-16T14:54:30.084Z,83.55
2023-12-16T14:59:32.099Z,83.62
2023-12-16T15:04:34.947Z,83.89
2023-12-16T15:09:37.864Z,84.96
2023-12-16T15:14:39.638Z,84.91
2023-12-16T15:19:41.386Z,83.70
2023-12-16T15:24:43.101Z,83.99
2023-12-16T15:29:45.153Z,84.88
2023-12-16T15:34:46.934Z,85.07
2023-12-16T15:39:48.660Z,84.79
2023-12-16T15:44:50.423Z,84.48
2023-12-16T15:49:53.498Z,84.79
2023-12-16T15:54:55.256Z,85.03
2023-12-16T15:59:57.115Z,84.51
2023-12-16T16:04:58.820Z,85.72
2023-12-16T16:10:00.711Z,85.17
2023-12-16T16:15:02.432Z,85.00
2023-12-16T16:20:08.384Z,85.40
2023-12-16T16:25:11.608Z,85.12
2023-12-16T16:30:13.755Z,85.43
2023-12-16T16:35:15.526Z,85.58
2023-12-16T16:40:18.475Z,85.11
2023-12-16T16:45:20.252Z,86.03
2023-12-16T16:50:21.949Z,85.58
2023-12-16T16:55:23.833Z,85.23
2023-12-16T17:00:25.624Z,85.67
2023-12-16T17:05:27.408Z,85.81
2023-12-16T17:10:29.615Z,85.37
2023-12-16T17:15:31.321Z,85.67
2023-12-16T17:20:33.123Z,85.82
2023-12-16T17:25:34.798Z,86.33
2023-12-16T17:30:36.552Z,86.63
2023-12-16T17:35:39.754Z,86.57
2023-12-16T17:40:41.536Z,86.68
2023-12-16T17:45:43.242Z,87.07
2023-12-16T17:50:46.066Z,87.00
2023-12-16T17:55:47.719Z,87.19
2023-12-16T18:00:49.468Z,86.74
2023-12-16T18:05:51.237Z,86.74
2023-12-16T18:10:53.445Z,85.52
2023-12-16T18:15:55.354Z,85.87
2023-12-16T18:21:00.950Z,86.30
2023-12-16T18:26:09.262Z,86.20
2023-12-16T18:31:11.159Z,86.47
2023-12-16T18:36:12.924Z,85.83
2023-12-16T18:41:14.635Z,86.24
2023-12-16T18:46:16.333Z,85.94
2023-12-16T18:51:18.299Z,85.81
2023-12-16T18:56:20.021Z,86.46
2023-12-16T19:01:21.738Z,86.61
2023-12-16T19:06:23.682Z,87.27
2023-12-16T19:11:25.326Z,87.37
2023-12-16T19:16:26.976Z,87.99
2023-12-16T19:21:28.780Z,87.82
2023-12-16T19:26:30.464Z,88.10
2023-12-16T19:31:32.154Z,89.52
2023-12-16T19:36:34.093Z,89.69
2023-12-16T19:41:35.792Z,90.11
2023-12-16T19:46:37.496Z,90.37
2023-12-16T19:51:39.544Z,91.42
2023-12-16T19:56:41.201Z,91.68
2023-12-16T20:01:47.868Z,92.09
2023-12-16T20:06:49.751Z,92.26
2023-12-16T20:11:51.774Z,91.95
2023-12-16T20:16:53.452Z,92.68
2023-12-16T20:21:57.410Z,92.62
2023-12-16T20:26:59.323Z,92.72
2023-12-16T20:32:01.115Z,92.20
2023-12-16T20:37:02.821Z,92.61
2023-12-16T20:42:04.740Z,92.11
2023-12-16T20:47:06.545Z,92.05
2023-12-16T20:52:08.290Z,92.83
2023-12-16T20:57:10.088Z,91.91
2023-12-16T21:02:11.759Z,91.96
2023-12-16T21:07:15.086Z,91.91
2023-12-16T21:12:17.050Z,92.39
2023-12-16T21:17:20.102Z,92.95
2023-12-16T21:22:21.792Z,92.44
2023-12-16T21:27:23.538Z,93.27
2023-12-16T21:32:25.358Z,93.55
2023-12-16T21:37:28.460Z,93.49
2023-12-16T21:42:30.112Z,93.16
2023-12-16T21:47:31.920Z,93.90
2023-12-16T21:52:33.614Z,93.46
2023-12-16T21:57:35.845Z,93.96
2023-12-16T22:02:37.548Z,93.74
2023-12-16T22:07:39.543Z,93.73
2023-12-16T22:12:41.324Z,93.69
2023-12-16T22:17:43.730Z,93.95
2023-12-16T22:22:45.657Z,94.61
2023-12-16T22:27:47.300Z,93.99
2023-12-16T22:32:49.074Z,94.56
2023-12-16T22:37:50.872Z,94.68
2023-12-16T22:42:52.684Z,94.91
2023-12-16T22:47:54.457Z,94.73
2023-12-16T22:52:56.215Z,94.95
2023-12-16T22:57:57.867Z,95.31
2023-12-16T23:02:59.797Z,95.55
2023-12-16T23:08:01.506Z,95.42
2023-12-16T23:13:03.204Z,95.80
2023-12-16T23:18:05.971Z,95.55
2023-12-16T23:23:07.714Z,95.44
2023-12-16T23:28:09.363Z,95.96
2023-12-16T23:33:11.261Z,95.96
2023-12-16T23:38:12.959Z,95.93
2023-12-16T23:43:14.618Z,95.22
2023-12-16T23:48:16.453Z,95.20
2023-12-16T23:53:18.174Z,96.32
2023-12-16T23:58:19.881Z,95.61
